Terminal Aerodrome Forecast
Issued by NWS

Home | Current Version | Previous Version | Text Only | Print | Product List | Glossary On
Versions: 1 2 3 4 5 6 7 8 9 10 11 12 13 14 15 16
000
FTUS43 KAPX 271232 AAA
TAFTVC
TAF AMD
KTVC 271232Z 2713/2812 00000KT P6SM -DZ BKN012 OVC025
     FM271400 00000KT 1 1/2SM -RA BR OVC012
     FM271700 22007KT 3SM -RA BR OVC006 WS020/21040KT
     FM272200 27009KT P6SM VCSH OVC018
     FM280000 29009KT P6SM BKN028
     FM280400 29008KT P6SM BKN035=

USA.gov is the U.S. government's official web portal to all federal, state and local government web resources and services.